Time;durP1;ratioP1;P1;durP2;ratioP2;P2;SDS_P1;SDS_P2;PMS_P1;PMS_P2;Temp;Humidity;BMP_temperature;BMP_pressure;BME280_temperature;BME280_humidity;BME280_pressure;Samples;Min_cycle;Max_cycle;Signal;HPM_P1;HPM_P2
2021/07/31 00:01:13;;;;;;;9.43;6.95;;;19.20;99.90;;;;;;5055985;28;20033;-88
2021/07/31 00:03:39;;;;;;;8.43;7.45;;;19.20;99.90;;;;;;5055862;28;20110;-88
2021/07/31 00:06:06;;;;;;;7.60;6.75;;;19.20;99.90;;;;;;5056460;28;20025;-86
2021/07/31 00:08:32;;;;;;;8.95;7.32;;;19.20;99.90;;;;;;5055844;28;20480;-87
2021/07/31 00:10:58;;;;;;;8.38;6.88;;;19.20;99.90;;;;;;5055186;28;20025;-82
2021/07/31 00:13:25;;;;;;;9.35;7.32;;;19.20;99.90;;;;;;5055316;28;20028;-86
2021/07/31 00:15:51;;;;;;;9.88;6.45;;;19.10;99.90;;;;;;5055229;28;20384;-88
2021/07/31 00:18:17;;;;;;;7.85;6.93;;;19.00;99.90;;;;;;5054820;28;20033;-81
2021/07/31 00:20:42;;;;;;;8.25;6.80;;;19.00;99.90;;;;;;5056264;28;20035;-85
2021/07/31 00:23:09;;;;;;;7.75;6.10;;;18.90;99.90;;;;;;5056198;28;20438;-87
2021/07/31 00:25:35;;;;;;;11.98;6.05;;;18.80;99.90;;;;;;5054973;28;20044;-85
2021/07/31 00:28:01;;;;;;;6.45;5.65;;;18.80;99.90;;;;;;5054808;28;20044;-84
2021/07/31 00:30:28;;;;;;;6.07;5.47;;;18.70;99.90;;;;;;5054771;28;20029;-89
2021/07/31 00:32:54;;;;;;;7.55;6.07;;;18.70;99.90;;;;;;5054737;28;20021;-85
2021/07/31 00:35:20;;;;;;;9.35;5.75;;;18.70;99.90;;;;;;5054885;28;20075;-83
2021/07/31 00:37:46;;;;;;;7.03;5.10;;;18.60;99.90;;;;;;5054739;28;20025;-85
2021/07/31 00:40:11;;;;;;;6.07;4.45;;;18.70;99.90;;;;;;5054789;28;20108;-87
2021/07/31 00:42:41;;;;;;;7.05;4.35;;;18.60;99.90;;;;;;5054345;28;20518;-90
2021/07/31 00:45:09;;;;;;;4.30;3.90;;;18.60;99.90;;;;;;5054635;28;20021;-88
2021/07/31 00:47:35;;;;;;;4.28;3.67;;;18.60;99.90;;;;;;5054133;28;20040;-87
2021/07/31 00:50:01;;;;;;;4.82;3.75;;;18.60;99.90;;;;;;5054706;28;20098;-91
2021/07/31 00:52:27;;;;;;;5.40;3.70;;;18.60;99.90;;;;;;5054453;28;20029;-90
2021/07/31 00:54:56;;;;;;;3.47;3.17;;;18.60;99.90;;;;;;5054495;28;20068;-82
2021/07/31 00:57:23;;;;;;;4.55;3.75;;;18.60;99.90;;;;;;5054242;28;20123;-88
2021/07/31 00:59:49;;;;;;;6.00;3.42;;;18.60;99.90;;;;;;5054350;28;20025;-83
2021/07/31 01:02:15;;;;;;;7.55;3.80;;;18.60;99.90;;;;;;5054332;28;20063;-85
2021/07/31 01:04:41;;;;;;;5.72;4.30;;;18.50;99.90;;;;;;5055302;28;20032;-83
2021/07/31 01:07:07;;;;;;;5.78;4.57;;;18.50;99.90;;;;;;5054201;28;20021;-91
2021/07/31 01:09:33;;;;;;;7.90;4.40;;;18.40;99.90;;;;;;5054195;28;20107;-87
2021/07/31 01:11:59;;;;;;;6.85;4.72;;;18.40;99.90;;;;;;5054082;28;20032;-82
2021/07/31 01:14:24;;;;;;;7.60;5.35;;;18.30;99.90;;;;;;5053340;28;20028;-82
2021/07/31 01:16:50;;;;;;;6.85;5.40;;;18.30;99.90;;;;;;5053751;28;20044;-89
2021/07/31 01:19:16;;;;;;;6.63;4.95;;;18.20;99.90;;;;;;5053945;28;20025;-84
2021/07/31 01:21:45;;;;;;;9.02;5.28;;;18.20;99.90;;;;;;5053826;28;20029;-88
2021/07/31 01:24:13;;;;;;;6.00;5.13;;;18.20;99.90;;;;;;5054008;28;20027;-82
2021/07/31 01:26:44;;;;;;;5.88;4.93;;;18.20;99.90;;;;;;5053942;28;20488;-90
2021/07/31 01:29:11;;;;;;;8.85;5.63;;;18.20;99.90;;;;;;5054878;28;20021;-82
2021/07/31 01:31:37;;;;;;;6.45;5.40;;;18.20;99.90;;;;;;5053278;28;20116;-81
2021/07/31 01:34:04;;;;;;;6.72;5.10;;;18.20;99.90;;;;;;5053700;28;20021;-82
2021/07/31 01:36:30;;;;;;;9.63;5.45;;;18.20;99.90;;;;;;5053451;28;20476;-82
2021/07/31 01:38:57;;;;;;;8.75;5.07;;;18.20;99.90;;;;;;5053253;28;20036;-82
2021/07/31 01:41:23;;;;;;;10.18;5.18;;;18.10;99.90;;;;;;5054774;28;20461;-82
2021/07/31 01:43:49;;;;;;;8.73;5.53;;;18.10;99.90;;;;;;5053368;28;20024;-86
2021/07/31 01:46:15;;;;;;;8.55;5.15;;;18.10;99.90;;;;;;5053474;28;20170;-82
2021/07/31 01:48:41;;;;;;;8.02;5.40;;;18.10;99.90;;;;;;5053246;28;20048;-80
2021/07/31 01:51:06;;;;;;;8.43;5.53;;;18.00;99.90;;;;;;5053444;28;20056;-88
2021/07/31 01:53:32;;;;;;;5.85;5.15;;;18.00;99.90;;;;;;5053242;28;20059;-83
2021/07/31 01:55:58;;;;;;;5.28;4.80;;;18.00;99.90;;;;;;5053039;28;20037;-82
2021/07/31 01:58:23;;;;;;;6.53;4.85;;;17.90;99.90;;;;;;5053400;28;20056;-82
2021/07/31 02:00:51;;;;;;;7.97;4.43;;;17.90;99.90;;;;;;5053295;28;20029;-89
2021/07/31 02:03:17;;;;;;;5.75;4.65;;;17.90;99.90;;;;;;5053143;28;20491;-83
2021/07/31 02:05:42;;;;;;;7.00;4.55;;;17.90;99.90;;;;;;5053140;28;20112;-82
2021/07/31 02:08:08;;;;;;;6.55;5.05;;;17.90;99.90;;;;;;5053023;28;20060;-81
2021/07/31 02:10:34;;;;;;;5.93;4.82;;;17.90;99.90;;;;;;5052994;28;20060;-82
2021/07/31 02:12:59;;;;;;;5.28;4.63;;;17.90;99.90;;;;;;5054166;28;20021;-82
2021/07/31 02:15:25;;;;;;;7.28;4.95;;;17.90;99.90;;;;;;5052837;28;20036;-82
2021/07/31 02:17:51;;;;;;;6.35;4.82;;;17.90;99.90;;;;;;5053051;28;20460;-89
2021/07/31 02:20:16;;;;;;;6.60;4.95;;;17.90;99.90;;;;;;5052777;28;20124;-90
2021/07/31 02:22:42;;;;;;;7.30;5.15;;;17.80;99.90;;;;;;5052937;28;20036;-88
2021/07/31 02:25:08;;;;;;;5.72;4.70;;;17.90;99.90;;;;;;5052952;28;20464;-82
2021/07/31 02:27:33;;;;;;;7.28;4.93;;;17.90;99.90;;;;;;5053838;28;20035;-82
2021/07/31 02:29:59;;;;;;;5.75;4.85;;;17.90;99.90;;;;;;5052944;28;20025;-83
2021/07/31 02:32:25;;;;;;;7.97;4.68;;;17.80;99.90;;;;;;5052603;28;20029;-90
2021/07/31 02:34:50;;;;;;;7.20;5.28;;;17.80;99.90;;;;;;5052873;28;20021;-89
2021/07/31 02:37:16;;;;;;;6.88;5.00;;;17.80;99.90;;;;;;5052472;28;20041;-81
2021/07/31 02:39:42;;;;;;;7.35;4.70;;;17.70;99.90;;;;;;5053706;28;20029;-81
2021/07/31 02:42:07;;;;;;;6.50;5.38;;;17.80;99.90;;;;;;5052586;28;20028;-81
2021/07/31 02:44:36;;;;;;;6.60;5.65;;;17.80;99.90;;;;;;5052657;28;20025;-82
2021/07/31 02:47:02;;;;;;;7.53;5.70;;;17.70;99.90;;;;;;5052486;28;20071;-81
2021/07/31 02:49:28;;;;;;;9.63;5.28;;;17.70;99.90;;;;;;5052732;28;20025;-91
2021/07/31 02:51:53;;;;;;;6.95;5.75;;;17.70;99.90;;;;;;5052299;28;20098;-83
2021/07/31 02:54:19;;;;;;;8.38;5.78;;;17.70;99.90;;;;;;5052583;28;20033;-82
2021/07/31 02:56:45;;;;;;;9.13;5.78;;;17.80;99.90;;;;;;5052278;28;20397;-83
2021/07/31 02:59:11;;;;;;;9.57;6.10;;;17.80;99.90;;;;;;5052438;28;20495;-83
2021/07/31 03:01:37;;;;;;;10.00;6.13;;;17.80;99.90;;;;;;5052122;28;20029;-91
2021/07/31 03:04:03;;;;;;;8.75;6.28;;;17.80;99.90;;;;;;5052280;28;20033;-83
2021/07/31 03:06:29;;;;;;;6.82;5.97;;;17.90;99.90;;;;;;5053593;28;20040;-83
2021/07/31 03:08:54;;;;;;;5.38;4.88;;;17.90;99.90;;;;;;5052407;28;20384;-84
2021/07/31 03:11:22;;;;;;;7.28;5.47;;;18.00;99.90;;;;;;5052342;28;20082;-92
2021/07/31 03:13:47;;;;;;;8.27;5.45;;;18.00;99.90;;;;;;5052401;28;20021;-88
2021/07/31 03:16:13;;;;;;;6.82;5.80;;;18.00;99.90;;;;;;5052089;28;20037;-83
2021/07/31 03:18:39;;;;;;;6.65;5.35;;;18.00;99.90;;;;;;5052096;28;20056;-90
2021/07/31 03:21:04;;;;;;;6.28;5.43;;;18.00;99.90;;;;;;5052350;28;20044;-83
2021/07/31 03:23:30;;;;;;;9.18;5.97;;;18.10;99.90;;;;;;5052392;28;20025;-91
2021/07/31 03:25:57;;;;;;;7.90;5.43;;;18.00;99.90;;;;;;5053071;28;20079;-81
2021/07/31 03:28:23;;;;;;;6.35;5.20;;;18.10;99.90;;;;;;5052125;28;20092;-87
2021/07/31 03:30:49;;;;;;;6.85;5.30;;;18.10;99.90;;;;;;5052468;28;20376;-86
2021/07/31 03:33:15;;;;;;;6.03;5.43;;;18.00;99.90;;;;;;5052488;28;20029;-81
2021/07/31 03:35:42;;;;;;;7.93;5.70;;;18.00;99.90;;;;;;5052429;28;20033;-92
2021/07/31 03:38:09;;;;;;;9.55;5.40;;;18.10;99.90;;;;;;5053206;28;20017;-83
2021/07/31 03:40:35;;;;;;;5.90;5.40;;;18.10;99.90;;;;;;5055921;28;20031;-84
2021/07/31 03:43:01;;;;;;;8.98;5.55;;;18.00;99.90;;;;;;5055915;28;20021;-92
2021/07/31 03:45:27;;;;;;;6.05;4.82;;;18.00;99.90;;;;;;5055874;28;20102;-91
2021/07/31 03:47:53;;;;;;;6.55;5.20;;;18.00;99.90;;;;;;5055612;28;20138;-83
2021/07/31 03:50:19;;;;;;;6.88;5.72;;;18.00;99.90;;;;;;5055987;28;20029;-91
2021/07/31 03:52:45;;;;;;;10.32;5.00;;;18.10;99.90;;;;;;5055765;28;20031;-83
2021/07/31 03:55:11;;;;;;;9.00;5.40;;;18.10;99.90;;;;;;5056698;28;20068;-84
2021/07/31 03:57:36;;;;;;;7.43;5.57;;;18.10;99.90;;;;;;5057270;28;20041;-89
2021/07/31 04:00:04;;;;;;;8.63;5.13;;;18.10;99.90;;;;;;5059996;28;20017;-85
2021/07/31 04:02:29;;;;;;;9.85;5.63;;;18.20;99.90;;;;;;5059561;28;20033;-86
2021/07/31 04:04:55;;;;;;;7.53;5.60;;;18.20;99.90;;;;;;5060136;28;20032;-92
2021/07/31 04:07:21;;;;;;;11.00;5.72;;;18.20;99.90;;;;;;5060180;28;20476;-87
2021/07/31 04:09:47;;;;;;;8.60;6.05;;;18.20;99.90;;;;;;5060306;28;20029;-83
2021/07/31 04:12:13;;;;;;;7.28;6.05;;;18.20;99.90;;;;;;5063490;28;20025;-83
2021/07/31 04:14:38;;;;;;;9.27;5.65;;;18.30;99.90;;;;;;5060526;28;20021;-82
2021/07/31 04:17:04;;;;;;;8.10;5.03;;;18.30;99.90;;;;;;5058179;28;20036;-82
2021/07/31 04:19:30;;;;;;;7.93;5.15;;;18.40;99.90;;;;;;5057379;28;20021;-82
2021/07/31 04:21:58;;;;;;;6.65;4.35;;;18.50;99.90;;;;;;5055881;28;20075;-81
2021/07/31 04:24:25;;;;;;;4.68;3.55;;;18.60;99.90;;;;;;5055058;28;20017;-81
2021/07/31 04:26:52;;;;;;;9.52;4.22;;;18.70;99.90;;;;;;5055441;28;20112;-92
2021/07/31 04:29:18;;;;;;;5.70;3.92;;;18.80;99.90;;;;;;5055512;28;20060;-85
2021/07/31 04:31:44;;;;;;;5.50;3.65;;;18.90;99.90;;;;;;5056643;28;20064;-84
2021/07/31 04:34:10;;;;;;;5.57;3.78;;;19.00;99.90;;;;;;5059968;28;20021;-83
2021/07/31 04:36:36;;;;;;;5.93;4.03;;;18.90;99.90;;;;;;5063451;28;20051;-81
2021/07/31 04:39:02;;;;;;;5.28;3.83;;;18.90;99.90;;;;;;5060029;28;20025;-81
2021/07/31 04:41:28;;;;;;;5.38;3.40;;;18.90;99.90;;;;;;5058313;28;20119;-85
2021/07/31 04:43:54;;;;;;;4.22;2.85;;;19.00;99.90;;;;;;5060273;28;20410;-89
2021/07/31 04:46:20;;;;;;;4.25;3.00;;;19.00;99.90;;;;;;5059068;28;20033;-88
2021/07/31 04:48:45;;;;;;;4.38;2.58;;;19.00;99.90;;;;;;5058641;28;20067;-80
2021/07/31 04:51:11;;;;;;;3.72;2.60;;;19.10;99.90;;;;;;5058988;28;20488;-84
2021/07/31 04:53:37;;;;;;;3.50;2.88;;;19.10;99.90;;;;;;5055635;28;20469;-89
2021/07/31 04:56:03;;;;;;;2.97;2.67;;;19.20;99.90;;;;;;5056715;28;20037;-82
2021/07/31 04:58:29;;;;;;;2.53;2.30;;;19.30;99.90;;;;;;5055315;28;20534;-80
2021/07/31 05:00:55;;;;;;;3.67;2.30;;;19.50;99.90;;;;;;5054499;28;20029;-80
2021/07/31 05:03:21;;;;;;;2.45;2.22;;;19.60;99.90;;;;;;5054372;28;20021;-80
2021/07/31 05:05:48;;;;;;;4.78;2.78;;;19.70;99.90;;;;;;5054181;28;20021;-80
2021/07/31 05:08:14;;;;;;;4.55;2.72;;;19.80;99.90;;;;;;5054066;28;20025;-81
2021/07/31 05:10:45;;;;;;;5.40;2.85;;;19.90;99.90;;;;;;5054216;28;20025;-80
2021/07/31 05:13:11;;;;;;;6.53;2.95;;;20.10;99.90;;;;;;5054237;28;20068;-80
2021/07/31 05:15:42;;;;;;;7.05;3.40;;;20.10;99.90;;;;;;5055270;28;20075;-80
2021/07/31 05:18:10;;;;;;;6.47;3.10;;;20.20;99.90;;;;;;5054222;28;20058;-80
2021/07/31 05:20:42;;;;;;;5.57;3.38;;;20.30;99.90;;;;;;5055338;28;20074;-88
2021/07/31 05:23:08;;;;;;;4.25;3.40;;;20.30;99.90;;;;;;5054825;28;20108;-84
2021/07/31 05:25:33;;;;;;;4.18;3.78;;;20.40;99.90;;;;;;5055466;28;20099;-83
2021/07/31 05:27:59;;;;;;;7.03;4.38;;;20.40;99.90;;;;;;5054014;28;20082;-81
2021/07/31 05:30:25;;;;;;;5.05;4.35;;;20.50;99.90;;;;;;5053674;28;20021;-81
2021/07/31 05:32:51;;;;;;;8.40;4.22;;;20.40;99.90;;;;;;5053888;28;20064;-90
2021/07/31 05:35:16;;;;;;;6.95;4.20;;;20.50;99.90;;;;;;5053640;28;20017;-88
2021/07/31 05:37:42;;;;;;;6.07;3.83;;;20.50;99.90;;;;;;5053802;28;20162;-89
2021/07/31 05:40:08;;;;;;;5.60;3.45;;;20.30;99.90;;;;;;5053552;28;20495;-80
2021/07/31 05:42:34;;;;;;;3.40;3.03;;;20.40;99.90;;;;;;5053338;28;20475;-80
2021/07/31 05:45:03;;;;;;;6.93;3.50;;;20.30;99.90;;;;;;5053324;28;20070;-80
2021/07/31 05:47:29;;;;;;;5.53;2.88;;;20.30;99.90;;;;;;5053267;28;20055;-84
2021/07/31 05:49:59;;;;;;;5.88;3.03;;;20.30;99.90;;;;;;5053537;28;20115;-80
2021/07/31 05:52:28;;;;;;;4.90;3.00;;;20.30;99.90;;;;;;5053468;28;20025;-87
2021/07/31 05:54:56;;;;;;;7.43;3.20;;;20.30;99.90;;;;;;5058526;28;20045;-87
2021/07/31 05:57:22;;;;;;;13.95;6.00;;;20.40;99.90;;;;;;5055183;28;20097;-82
2021/07/31 05:59:48;;;;;;;6.03;3.22;;;20.40;99.90;;;;;;5053412;28;20102;-83
2021/07/31 06:02:14;;;;;;;5.88;3.55;;;20.50;99.90;;;;;;5054136;28;20028;-90
2021/07/31 06:04:40;;;;;;;6.28;2.92;;;21.80;99.90;;;;;;5052556;28;20379;-78
2021/07/31 06:07:07;;;;;;;6.80;2.95;;;22.70;99.90;;;;;;5056886;28;20021;-80
2021/07/31 06:09:36;;;;;;;3.40;2.28;;;23.10;99.90;;;;;;5055941;28;20468;-81
2021/07/31 06:12:03;;;;;;;5.65;2.10;;;23.30;99.90;;;;;;5052859;28;20078;-85
2021/07/31 06:14:29;;;;;;;4.97;2.13;;;23.40;99.90;;;;;;5053136;28;20021;-81
2021/07/31 06:16:55;;;;;;;2.60;1.85;;;23.30;99.90;;;;;;5052935;28;20037;-80
2021/07/31 06:19:21;;;;;;;2.53;1.92;;;23.80;99.90;;;;;;5053040;28;20025;-82
2021/07/31 06:21:47;;;;;;;4.90;2.38;;;24.00;99.90;;;;;;5052898;28;20025;-82
2021/07/31 06:24:13;;;;;;;6.80;2.40;;;23.90;99.90;;;;;;5052915;28;20025;-82
2021/07/31 06:26:39;;;;;;;3.78;2.28;;;24.00;99.90;;;;;;5053093;28;20063;-82
2021/07/31 06:29:05;;;;;;;4.47;2.40;;;24.00;99.90;;;;;;5052839;28;20021;-81
2021/07/31 06:31:31;;;;;;;6.32;2.40;;;24.20;99.90;;;;;;5052694;28;20056;-81
2021/07/31 06:33:58;;;;;;;3.00;2.17;;;24.40;99.90;;;;;;5052788;28;20075;-81
2021/07/31 06:36:23;;;;;;;3.55;2.08;;;24.40;99.90;;;;;;5052774;28;20084;-83
2021/07/31 06:38:49;;;;;;;4.55;2.67;;;24.40;99.90;;;;;;5052971;28;20028;-83
2021/07/31 06:41:16;;;;;;;3.05;2.60;;;24.50;99.90;;;;;;5052615;28;20070;-83
2021/07/31 06:43:41;;;;;;;3.53;2.20;;;24.60;99.90;;;;;;5052752;28;20033;-83
2021/07/31 06:46:15;;;;;;;2.58;2.13;;;24.60;99.90;;;;;;5052837;28;20021;-83
2021/07/31 06:48:41;;;;;;;4.80;2.78;;;24.60;99.90;;;;;;5052735;28;20045;-82
2021/07/31 06:51:08;;;;;;;4.95;2.50;;;24.70;99.90;;;;;;5052754;28;20021;-83
2021/07/31 06:53:35;;;;;;;3.20;2.55;;;24.70;99.90;;;;;;5052905;28;20059;-83
2021/07/31 06:56:01;;;;;;;2.83;2.60;;;24.60;99.90;;;;;;5052715;28;20036;-83
2021/07/31 06:58:27;;;;;;;3.30;2.70;;;24.60;99.90;;;;;;5052753;28;20111;-82
2021/07/31 07:00:53;;;;;;;3.25;2.78;;;24.50;99.90;;;;;;5052406;28;20071;-82
2021/07/31 07:03:19;;;;;;;4.28;2.28;;;24.60;99.90;;;;;;5052519;28;20060;-83
2021/07/31 07:05:45;;;;;;;3.88;2.78;;;24.70;99.90;;;;;;5052589;28;20079;-82
2021/07/31 07:08:11;;;;;;;3.60;2.58;;;24.80;99.90;;;;;;5052416;28;20022;-82
2021/07/31 07:10:37;;;;;;;2.60;2.35;;;24.90;99.90;;;;;;5052507;28;20044;-82
2021/07/31 07:13:03;;;;;;;4.78;3.05;;;24.90;99.90;;;;;;5054811;28;20060;-83
2021/07/31 07:15:28;;;;;;;3.70;2.50;;;24.80;99.90;;;;;;5056558;28;20036;-82
2021/07/31 07:17:55;;;;;;;7.47;2.97;;;24.70;99.90;;;;;;5055969;28;20039;-81
2021/07/31 07:20:21;;;;;;;3.38;2.50;;;24.80;99.90;;;;;;5056365;28;20029;-80
2021/07/31 07:22:47;;;;;;;5.28;2.80;;;24.80;99.90;;;;;;5056223;28;20029;-82
2021/07/31 07:25:13;;;;;;;2.97;2.50;;;24.90;99.90;;;;;;5056008;28;20116;-80
2021/07/31 07:27:39;;;;;;;4.20;2.72;;;25.00;99.90;;;;;;5056177;28;20017;-82
2021/07/31 07:30:06;;;;;;;5.10;2.53;;;25.10;99.90;;;;;;5055935;28;20029;-83
2021/07/31 07:32:34;;;;;;;3.30;3.00;;;25.10;99.90;;;;;;5055976;28;20539;-88
2021/07/31 07:34:59;;;;;;;3.08;2.78;;;25.30;99.90;;;;;;5056001;28;20025;-87
2021/07/31 07:37:25;;;;;;;5.07;2.78;;;25.50;99.90;;;;;;5055878;28;20033;-82
2021/07/31 07:39:51;;;;;;;4.70;3.17;;;25.40;99.90;;;;;;5055965;28;20021;-87
2021/07/31 07:42:17;;;;;;;3.38;2.78;;;25.50;99.90;;;;;;5056179;28;20068;-86
2021/07/31 07:44:42;;;;;;;4.25;2.90;;;25.50;99.90;;;;;;5056292;28;20029;-84
2021/07/31 07:47:10;;;;;;;4.05;3.03;;;25.50;99.90;;;;;;5055817;28;20128;-81
2021/07/31 07:49:35;;;;;;;4.95;3.05;;;25.60;99.50;;;;;;5055874;28;20025;-86
2021/07/31 07:52:01;;;;;;;3.00;2.80;;;25.70;99.70;;;;;;5055561;28;20021;-81
2021/07/31 07:54:29;;;;;;;5.35;3.38;;;25.80;99.10;;;;;;5055263;28;20025;-78
2021/07/31 07:56:58;;;;;;;3.38;3.05;;;25.80;99.90;;;;;;5055272;28;20559;-87
2021/07/31 07:59:23;;;;;;;5.88;2.92;;;25.90;98.20;;;;;;5054889;28;20025;-76
2021/07/31 08:01:49;;;;;;;3.97;3.08;;;25.80;97.70;;;;;;5054909;28;20021;-80
2021/07/31 08:04:15;;;;;;;4.78;2.65;;;25.80;98.20;;;;;;5054822;28;20411;-77
2021/07/31 08:06:41;;;;;;;3.97;2.47;;;26.00;99.30;;;;;;5054898;28;20032;-85
2021/07/31 08:09:07;;;;;;;3.05;2.72;;;26.00;98.40;;;;;;5054822;28;20079;-77
2021/07/31 08:11:33;;;;;;;12.45;3.08;;;26.10;97.70;;;;;;5054316;28;20021;-76
2021/07/31 08:13:59;;;;;;;3.28;2.97;;;26.30;97.90;;;;;;5054422;28;20031;-78
2021/07/31 08:16:25;;;;;;;3.30;2.65;;;26.40;96.40;;;;;;5054612;28;20029;-76
2021/07/31 08:18:51;;;;;;;4.70;2.88;;;26.40;94.80;;;;;;5054435;28;20051;-83
2021/07/31 08:21:16;;;;;;;3.83;3.10;;;26.40;95.50;;;;;;5054535;28;20064;-79
2021/07/31 08:23:43;;;;;;;4.03;2.60;;;26.40;95.10;;;;;;5053734;28;20369;-77
2021/07/31 08:26:12;;;;;;;3.90;2.92;;;26.40;95.20;;;;;;5054152;28;20129;-77
2021/07/31 08:28:40;;;;;;;6.45;2.80;;;26.40;94.90;;;;;;5054401;28;20036;-84
2021/07/31 08:31:09;;;;;;;3.13;2.80;;;26.40;94.50;;;;;;5054025;28;20056;-83
2021/07/31 08:33:36;;;;;;;3.40;2.20;;;26.40;93.90;;;;;;5054003;28;20029;-86
2021/07/31 08:36:04;;;;;;;4.72;2.78;;;26.40;94.00;;;;;;5054343;28;20037;-84
2021/07/31 08:38:30;;;;;;;4.40;2.80;;;26.50;93.90;;;;;;5053814;28;20060;-84
2021/07/31 08:40:56;;;;;;;3.40;2.85;;;26.60;93.60;;;;;;5053955;28;20040;-76
2021/07/31 08:43:22;;;;;;;4.63;2.60;;;26.60;92.50;;;;;;5053988;28;20017;-76
2021/07/31 08:45:49;;;;;;;2.60;2.22;;;26.80;92.90;;;;;;5053909;28;20361;-77
2021/07/31 08:48:15;;;;;;;4.50;2.60;;;26.80;93.30;;;;;;5053795;28;20045;-84
2021/07/31 08:50:41;;;;;;;4.68;2.70;;;26.80;91.90;;;;;;5053935;28;20120;-86
2021/07/31 08:53:07;;;;;;;3.00;2.60;;;26.90;92.40;;;;;;5054053;28;20048;-76
2021/07/31 08:55:33;;;;;;;3.00;2.50;;;26.90;91.10;;;;;;5053692;28;20456;-87
2021/07/31 08:58:00;;;;;;;2.95;2.30;;;26.80;92.00;;;;;;5053795;28;20031;-76
2021/07/31 09:00:26;;;;;;;3.13;2.28;;;26.80;92.10;;;;;;5053543;28;20032;-76
2021/07/31 09:02:52;;;;;;;3.08;2.25;;;26.90;91.40;;;;;;5053181;28;20024;-86
2021/07/31 09:05:35;;;;;;;2.90;2.30;;;27.00;91.70;;;;;;5053309;28;20028;-77
2021/07/31 09:08:06;;;;;;;2.95;2.20;;;27.10;88.80;;;;;;5053818;28;20028;-87
2021/07/31 09:10:34;;;;;;;3.15;2.40;;;27.20;89.30;;;;;;5053412;28;20028;-86
2021/07/31 09:13:05;;;;;;;4.43;2.28;;;27.20;87.40;;;;;;5053685;28;20029;-84
2021/07/31 09:15:43;;;;;;;3.95;2.28;;;27.30;87.80;;;;;;5053181;28;20112;-84
2021/07/31 09:18:30;;;;;;;2.92;2.25;;;27.30;84.00;;;;;;5053288;28;20078;-77
2021/07/31 09:21:09;;;;;;;4.78;2.05;;;27.20;83.00;;;;;;5053303;28;20017;-78
2021/07/31 09:23:47;;;;;;;2.72;2.15;;;27.40;82.80;;;;;;5053358;28;20141;-76
2021/07/31 09:26:14;;;;;;;2.95;2.25;;;27.50;83.60;;;;;;5053919;28;20032;-87
2021/07/31 09:28:40;;;;;;;3.38;2.10;;;27.70;81.40;;;;;;5053300;28;20017;-78
2021/07/31 09:31:18;;;;;;;2.50;2.05;;;27.80;81.00;;;;;;5053175;28;20381;-77
2021/07/31 09:33:46;;;;;;;2.38;2.08;;;27.80;77.10;;;;;;5052617;28;20035;-79
2021/07/31 09:36:13;;;;;;;3.67;2.50;;;27.80;79.10;;;;;;5052758;28;20044;-81
2021/07/31 09:38:44;;;;;;;2.97;2.67;;;28.00;77.60;;;;;;5052596;28;20032;-78
2021/07/31 09:41:51;;;;;;;3.53;1.90;;;28.10;78.70;;;;;;5052343;28;20044;-76
2021/07/31 09:44:17;;;;;;;2.35;2.15;;;28.00;76.10;;;;;;5052348;28;20472;-77
2021/07/31 09:46:50;;;;;;;4.65;2.55;;;27.70;76.40;;;;;;5053071;28;20499;-79
2021/07/31 09:49:21;;;;;;;2.97;1.60;;;27.60;77.10;;;;;;5053724;28;20028;-78
2021/07/31 09:51:49;;;;;;;2.30;2.08;;;27.40;75.70;;;;;;5052464;28;20107;-75
2021/07/31 09:54:16;;;;;;;2.88;2.03;;;27.30;78.90;;;;;;5052379;28;20060;-77
2021/07/31 09:56:53;;;;;;;2.72;1.92;;;27.40;80.80;;;;;;5052544;28;20179;-77
2021/07/31 09:59:21;;;;;;;4.00;2.30;;;27.40;80.10;;;;;;5052568;28;20376;-78
2021/07/31 10:02:01;;;;;;;2.53;2.20;;;27.40;81.50;;;;;;5052915;28;20021;-78
2021/07/31 10:04:27;;;;;;;3.65;2.63;;;27.40;80.80;;;;;;5052293;28;20017;-76
2021/07/31 10:06:53;;;;;;;2.78;2.17;;;27.40;81.00;;;;;;5054224;28;20028;-80
2021/07/31 10:09:19;;;;;;;2.22;2.03;;;27.20;77.80;;;;;;5053214;28;20021;-81
2021/07/31 10:11:45;;;;;;;5.90;2.10;;;27.10;80.80;;;;;;5052876;28;20025;-85
2021/07/31 10:14:12;;;;;;;2.20;2.00;;;27.10;82.80;;;;;;5052830;28;20056;-80
2021/07/31 10:16:43;;;;;;;2.33;2.10;;;27.00;83.50;;;;;;5052534;28;20040;-83
2021/07/31 10:19:10;;;;;;;3.83;2.33;;;26.90;83.90;;;;;;5052597;28;20023;-81
2021/07/31 10:21:45;;;;;;;2.67;2.05;;;26.90;84.10;;;;;;5053267;28;20025;-80
2021/07/31 10:24:11;;;;;;;2.85;1.85;;;26.90;85.70;;;;;;5052807;28;20025;-81
2021/07/31 10:26:37;;;;;;;2.90;2.33;;;26.90;91.90;;;;;;5052948;28;20123;-85
2021/07/31 10:29:25;;;;;;;2.55;2.00;;;26.80;93.60;;;;;;5053235;28;20123;-82
2021/07/31 10:31:51;;;;;;;4.45;2.10;;;26.50;91.20;;;;;;5052768;28;20063;-81
2021/07/31 10:34:43;;;;;;;4.07;2.30;;;26.50;92.60;;;;;;5052589;28;20033;-82
2021/07/31 10:37:27;;;;;;;2.78;2.03;;;26.50;93.40;;;;;;5050430;28;20557;-82
2021/07/31 10:39:54;;;;;;;2.60;2.40;;;26.60;93.40;;;;;;5052717;28;20039;-85
2021/07/31 10:42:19;;;;;;;2.30;2.10;;;26.60;94.10;;;;;;5052397;28;20472;-81
2021/07/31 10:45:10;;;;;;;2.28;2.08;;;26.70;91.90;;;;;;5052605;28;20029;-80
2021/07/31 10:47:35;;;;;;;2.47;2.08;;;26.80;91.20;;;;;;5053990;28;20092;-80
2021/07/31 10:50:27;;;;;;;2.45;2.10;;;26.90;90.40;;;;;;5056824;28;20055;-84
2021/07/31 10:53:02;;;;;;;2.33;2.03;;;26.90;90.30;;;;;;5056635;28;20021;-87
2021/07/31 10:55:37;;;;;;;3.00;2.50;;;27.00;90.50;;;;;;5056640;28;20380;-81
2021/07/31 10:58:03;;;;;;;2.30;2.10;;;27.30;85.30;;;;;;5056628;28;20373;-82
2021/07/31 11:00:34;;;;;;;2.50;2.17;;;27.60;88.00;;;;;;5056783;28;20074;-84
2021/07/31 11:03:04;;;;;;;3.60;2.00;;;27.80;80.50;;;;;;5056453;28;20032;-86
2021/07/31 11:05:51;;;;;;;2.10;1.90;;;28.00;79.20;;;;;;5056650;28;20027;-83
2021/07/31 11:08:25;;;;;;;2.55;2.35;;;28.10;78.20;;;;;;5056431;28;20433;-80
2021/07/31 11:10:52;;;;;;;2.95;2.22;;;28.20;78.80;;;;;;5056609;28;20465;-86
2021/07/31 11:13:17;;;;;;;3.75;2.28;;;28.10;77.50;;;;;;5057548;28;20025;-79
2021/07/31 11:15:55;;;;;;;2.13;1.92;;;28.20;77.40;;;;;;5056203;28;20384;-86
2021/07/31 11:18:43;;;;;;;2.25;1.83;;;28.30;77.50;;;;;;5057672;28;20032;-88
2021/07/31 11:21:11;;;;;;;2.15;1.80;;;28.20;79.00;;;;;;5056180;28;20079;-85
2021/07/31 11:23:48;;;;;;;2.10;1.83;;;28.40;74.10;;;;;;5056362;28;20082;-87
2021/07/31 11:26:46;;;;;;;3.40;2.05;;;28.50;75.40;;;;;;5055911;28;20582;-87
2021/07/31 11:29:20;;;;;;;2.67;1.98;;;28.20;75.00;;;;;;5056192;28;20021;-88
2021/07/31 11:32:12;;;;;;;2.10;1.90;;;28.30;76.50;;;;;;5056149;28;20082;-80
2021/07/31 11:34:47;;;;;;;2.08;1.70;;;28.40;74.70;;;;;;5055976;28;20029;-86
2021/07/31 11:37:14;;;;;;;2.25;1.92;;;28.40;73.70;;;;;;5057132;28;20029;-86
2021/07/31 11:39:41;;;;;;;2.33;1.95;;;28.40;76.40;;;;;;5056047;28;20107;-89
2021/07/31 11:42:07;;;;;;;2.47;2.08;;;28.40;75.40;;;;;;5055821;28;20028;-81
2021/07/31 11:44:36;;;;;;;2.70;2.33;;;28.30;75.00;;;;;;5055601;28;20029;-78
2021/07/31 11:47:02;;;;;;;2.25;2.00;;;28.40;71.50;;;;;;5055468;28;20485;-87
2021/07/31 11:49:29;;;;;;;2.47;2.28;;;28.40;72.60;;;;;;5056113;28;20025;-83
2021/07/31 11:52:02;;;;;;;2.22;2.03;;;28.20;73.50;;;;;;5055556;28;20032;-80
2021/07/31 11:54:29;;;;;;;3.33;2.00;;;28.30;75.10;;;;;;5055446;28;20020;-80
2021/07/31 11:56:57;;;;;;;2.60;2.40;;;28.30;75.20;;;;;;5055230;28;20123;-81
2021/07/31 11:59:31;;;;;;;2.20;2.00;;;28.40;75.90;;;;;;5054566;28;20029;-82
2021/07/31 12:01:57;;;;;;;2.30;2.10;;;28.50;77.80;;;;;;5055234;28;20033;-81
2021/07/31 12:04:44;;;;;;;2.70;1.90;;;28.50;82.40;;;;;;5055751;28;20105;-83
2021/07/31 12:07:28;;;;;;;4.07;2.00;;;28.50;80.30;;;;;;5055724;28;20055;-80
2021/07/31 12:10:00;;;;;;;2.75;2.38;;;28.20;81.60;;;;;;5055391;28;20021;-81
2021/07/31 12:12:31;;;;;;;5.03;1.90;;;28.20;78.30;;;;;;5055267;28;20017;-80
2021/07/31 12:15:19;;;;;;;2.78;2.22;;;28.00;79.20;;;;;;5054998;28;20033;-79
2021/07/31 12:17:54;;;;;;;2.50;1.80;;;28.00;76.00;;;;;;5054907;28;20127;-82
2021/07/31 12:20:35;;;;;;;2.53;2.05;;;28.00;78.10;;;;;;5055258;28;20032;-83
2021/07/31 12:23:02;;;;;;;2.17;1.90;;;28.00;79.50;;;;;;5054943;28;20021;-83
2021/07/31 12:25:29;;;;;;;3.25;2.10;;;27.90;81.90;;;;;;5054935;28;20755;-85
2021/07/31 12:28:12;;;;;;;4.43;2.15;;;27.60;85.00;;;;;;5055129;28;20029;-86
2021/07/31 12:30:42;;;;;;;2.92;2.33;;;27.20;88.20;;;;;;5054903;28;20021;-86
2021/07/31 12:33:07;;;;;;;3.13;2.35;;;27.10;90.70;;;;;;5055210;28;20029;-84
2021/07/31 12:35:40;;;;;;;3.40;2.33;;;27.00;91.00;;;;;;5054928;28;20036;-83
2021/07/31 12:38:30;;;;;;;2.40;2.17;;;26.80;91.20;;;;;;5054756;28;20033;-84
2021/07/31 12:41:03;;;;;;;3.80;2.22;;;26.70;91.30;;;;;;5054554;28;20025;-83
2021/07/31 12:43:30;;;;;;;3.10;2.65;;;26.60;92.40;;;;;;5052686;28;20096;-84
2021/07/31 12:45:59;;;;;;;2.95;2.65;;;26.40;92.50;;;;;;5054491;28;20561;-85
2021/07/31 12:48:25;;;;;;;4.20;2.50;;;26.50;92.50;;;;;;5054427;28;20064;-85
2021/07/31 12:50:51;;;;;;;4.25;2.60;;;26.40;92.70;;;;;;5054469;28;20021;-83